Time;durP1;ratioP1;P1;durP2;ratioP2;P2;SDS_P1;SDS_P2;PMS_P1;PMS_P2;Temp;Humidity;BMP_temperature;BMP_pressure;BME280_temperature;BME280_humidity;BME280_pressure;Samples;Min_cycle;Max_cycle;Signal;HPM_P1;HPM_P2
2022/04/12 00:00:00;;;;;;;6.93;3.33;;;;;;;8.18;100.00;100147.88;5013898;28;20084;-68
2022/04/12 00:02:45;;;;;;;6.03;2.83;;;;;;;8.12;100.00;100155.47;5014763;28;20152;-68
2022/04/12 00:05:29;;;;;;;3.38;2.55;;;;;;;8.04;100.00;99474.09;5014447;28;20413;-68
2022/04/12 00:08:13;;;;;;;4.40;2.97;;;;;;;8.08;100.00;100152.25;5013477;28;20103;-68
2022/04/12 00:10:57;;;;;;;4.53;2.88;;;;;;;7.93;100.00;100153.56;5013710;28;20049;-68
2022/04/12 00:13:41;;;;;;;8.68;3.15;;;;;;;7.92;100.00;100151.03;5013693;28;20597;-68
2022/04/12 00:16:24;;;;;;;4.53;2.60;;;;;;;7.94;100.00;100149.09;5014193;28;20521;-68
2022/04/12 00:19:10;;;;;;;4.43;3.30;;;;;;;7.87;100.00;100147.94;4999435;28;20096;-68
2022/04/12 00:21:54;;;;;;;8.40;3.00;;;;;;;7.72;100.00;100147.41;4999659;28;20152;-68
2022/04/12 00:24:38;;;;;;;4.25;3.10;;;;;;;7.72;100.00;100146.59;5013119;28;20053;-68
2022/04/12 00:27:21;;;;;;;7.13;2.97;;;;;;;7.75;100.00;100138.34;4999510;28;20116;-68
2022/04/12 00:30:08;;;;;;;3.17;2.78;;;;;;;7.79;100.00;100140.63;5014370;28;20049;-68
2022/04/12 00:32:55;;;;;;;6.40;2.80;;;;;;;7.71;100.00;100136.91;5013600;28;20513;-68
2022/04/12 00:35:39;;;;;;;6.70;3.45;;;;;;;7.64;100.00;100138.44;5014257;28;20398;-68
2022/04/12 00:38:23;;;;;;;4.53;3.30;;;;;;;7.58;100.00;100141.56;5013986;28;20108;-68
2022/04/12 00:41:08;;;;;;;5.90;3.22;;;;;;;7.55;100.00;100145.31;5014195;28;20107;-68
2022/04/12 00:43:52;;;;;;;5.60;3.47;;;;;;;7.57;100.00;100147.84;5013210;28;20053;-68
2022/04/12 00:46:36;;;;;;;7.40;3.53;;;;;;;7.55;100.00;100142.66;5013029;28;20056;-68
2022/04/12 00:49:20;;;;;;;4.35;3.38;;;;;;;7.54;100.00;100143.63;5012996;28;20049;-68
2022/04/12 00:52:04;;;;;;;3.97;3.05;;;;;;;7.57;100.00;100151.38;5012542;28;20052;-68
2022/04/12 00:54:49;;;;;;;6.07;3.50;;;;;;;7.54;100.00;100142.81;5013959;28;20096;-68
2022/04/12 00:57:34;;;;;;;6.35;3.17;;;;;;;7.45;100.00;100142.72;5013726;28;20043;-68
2022/04/12 01:00:18;;;;;;;3.80;3.33;;;;;;;7.45;100.00;100146.22;5012994;28;20052;-68
2022/04/12 01:03:03;;;;;;;7.03;3.60;;;;;;;7.32;100.00;100144.72;5012895;28;20064;-68
2022/04/12 01:05:48;;;;;;;7.30;3.30;;;;;;;7.28;100.00;100141.47;5012434;28;20068;-69
2022/04/12 01:08:32;;;;;;;3.95;3.20;;;;;;;7.29;100.00;100137.84;5013097;28;20048;-68
2022/04/12 01:11:16;;;;;;;5.10;3.53;;;;;;;7.21;100.00;100142.09;5012798;28;20103;-68
2022/04/12 01:14:00;;;;;;;5.85;3.58;;;;;;;7.18;100.00;100140.53;5012730;28;20123;-68
2022/04/12 01:16:47;;;;;;;6.78;3.50;;;;;;;7.13;100.00;100129.50;5013684;28;20053;-68
2022/04/12 01:19:31;;;;;;;3.83;3.17;;;;;;;6.77;100.00;100143.06;5012748;28;20569;-68
2022/04/12 01:22:21;;;;;;;4.65;3.78;;;;;;;6.84;100.00;100136.31;4998707;28;20517;-68
2022/04/12 01:25:05;;;;;;;6.43;3.53;;;;;;;6.86;100.00;100139.69;5012636;28;20044;-68
2022/04/12 01:27:50;;;;;;;4.63;3.70;;;;;;;6.94;100.00;100133.75;5012555;28;20116;-68
2022/04/12 01:30:34;;;;;;;5.40;3.20;;;;;;;6.95;100.00;100131.00;5013643;28;20176;-68
2022/04/12 01:33:18;;;;;;;4.32;3.17;;;;;;;6.94;100.00;100124.00;5012306;28;20117;-68
2022/04/12 01:36:02;;;;;;;6.05;3.88;;;;;;;6.96;100.00;100131.84;5012231;28;20073;-68
2022/04/12 01:38:46;;;;;;;6.13;4.47;;;;;;;6.89;100.00;100126.19;5012608;28;20053;-68
2022/04/12 01:41:29;;;;;;;4.45;3.13;;;;;;;6.95;100.00;100128.34;5012352;28;20133;-68
2022/04/12 01:44:13;;;;;;;5.35;3.15;;;;;;;6.93;100.00;100132.94;5012253;28;20099;-68
2022/04/12 01:46:57;;;;;;;6.95;4.82;;;;;;;6.94;100.00;100118.72;5013658;28;20049;-68
2022/04/12 01:49:41;;;;;;;6.20;4.38;;;;;;;6.95;100.00;100125.69;5012206;28;20521;-68
2022/04/12 01:52:25;;;;;;;7.50;4.05;;;;;;;6.93;100.00;100117.03;5013167;28;20048;-68
2022/04/12 01:55:09;;;;;;;8.02;4.43;;;;;;;6.92;100.00;100114.50;5012460;28;20045;-68
2022/04/12 01:57:53;;;;;;;5.53;4.30;;;;;;;6.87;100.00;100116.69;5012184;28;20049;-68
2022/04/12 02:00:37;;;;;;;6.78;4.43;;;;;;;6.85;100.00;100114.16;5012119;28;20485;-68
2022/04/12 02:03:21;;;;;;;5.57;4.10;;;;;;;6.86;100.00;100110.53;5013815;28;20049;-68
2022/04/12 02:06:05;;;;;;;5.53;4.28;;;;;;;6.87;100.00;100098.13;5015750;28;20112;-68
2022/04/12 02:08:49;;;;;;;5.25;3.38;;;;;;;6.89;100.00;100110.28;5016266;28;20048;-68
2022/04/12 02:11:33;;;;;;;6.75;4.00;;;;;;;6.89;100.00;100110.28;5015982;28;20417;-68
2022/04/12 02:14:17;;;;;;;9.95;3.65;;;;;;;6.88;100.00;100105.94;5015931;28;20591;-68
2022/04/12 02:17:00;;;;;;;8.43;3.90;;;;;;;6.90;100.00;100108.47;5015761;28;20401;-68
2022/04/12 02:19:44;;;;;;;6.30;4.35;;;;;;;6.86;100.00;100107.88;5017100;28;20048;-68
2022/04/12 02:22:28;;;;;;;5.72;4.30;;;;;;;6.86;100.00;100101.75;5015499;28;20049;-68
2022/04/12 02:25:12;;;;;;;6.30;3.45;;;;;;;6.90;100.00;100105.84;5016650;28;20144;-68
2022/04/12 02:27:56;;;;;;;6.60;3.40;;;;;;;6.89;100.00;100102.31;5015391;28;20056;-68
2022/04/12 02:30:40;;;;;;;7.00;3.55;;;;;;;6.86;100.00;100101.75;5015625;28;20092;-68
2022/04/12 02:33:24;;;;;;;9.38;3.60;;;;;;;6.86;100.00;100110.53;5015299;28;20151;-68
2022/04/12 02:36:08;;;;;;;5.75;3.50;;;;;;;6.85;100.00;100103.56;5016434;28;20065;-68
2022/04/12 02:38:52;;;;;;;7.93;3.67;;;;;;;6.84;100.00;100109.81;5015200;28;20100;-68
2022/04/12 02:41:36;;;;;;;6.28;3.40;;;;;;;6.78;100.00;100109.47;5001497;28;20134;-68
2022/04/12 02:44:20;;;;;;;6.53;3.83;;;;;;;6.62;100.00;100106.38;5016381;28;20049;-68
2022/04/12 02:47:04;;;;;;;6.00;3.83;;;;;;;6.69;100.00;100113.69;5016108;28;20047;-68
2022/04/12 02:49:49;;;;;;;7.25;4.22;;;;;;;6.73;100.00;100107.19;5016247;28;20132;-68
2022/04/12 02:52:33;;;;;;;6.68;3.55;;;;;;;6.69;100.00;100107.56;5015428;28;20401;-68
2022/04/12 02:55:17;;;;;;;5.80;4.38;;;;;;;6.66;100.00;100103.34;5015129;28;20045;-68
2022/04/12 02:58:01;;;;;;;4.70;3.60;;;;;;;6.62;100.00;100096.63;5015061;28;20052;-68
2022/04/12 03:00:45;;;;;;;4.30;3.63;;;;;;;6.60;100.00;100103.00;5014928;28;20127;-70
2022/04/12 03:03:29;;;;;;;5.40;3.53;;;;;;;6.55;100.00;100095.44;5014727;28;20052;-69
2022/04/12 03:06:13;;;;;;;5.95;3.70;;;;;;;6.52;100.00;100095.69;5014827;28;20076;-69
2022/04/12 03:08:57;;;;;;;5.75;4.00;;;;;;;6.48;100.00;100102.19;5014879;28;20133;-69
2022/04/12 03:11:41;;;;;;;4.95;3.50;;;;;;;6.50;100.00;100099.41;5015541;28;20052;-70
2022/04/12 03:14:25;;;;;;;7.25;3.55;;;;;;;6.49;100.00;100100.38;5014352;28;20088;-69
2022/04/12 03:17:09;;;;;;;4.60;3.38;;;;;;;6.46;100.00;100101.47;5014416;28;20128;-69
2022/04/12 03:19:53;;;;;;;5.00;3.20;;;;;;;6.43;100.00;100096.41;5015469;28;20188;-70
2022/04/12 03:22:37;;;;;;;4.13;3.60;;;;;;;6.39;100.00;100102.94;5015637;28;20120;-69
2022/04/12 03:25:20;;;;;;;6.78;3.42;;;;;;;6.34;100.00;100106.91;5015703;28;20049;-68
2022/04/12 03:28:05;;;;;;;5.57;3.40;;;;;;;6.23;100.00;100098.94;5000365;28;20096;-70
2022/04/12 03:30:49;;;;;;;6.35;3.50;;;;;;;6.11;100.00;100110.50;5015448;28;20053;-70
2022/04/12 03:33:33;;;;;;;8.98;3.80;;;;;;;6.05;100.00;100111.81;5014464;28;20049;-69
2022/04/12 03:36:17;;;;;;;6.55;3.60;;;;;;;6.07;100.00;100104.59;5014041;28;20068;-70
2022/04/12 03:39:04;;;;;;;5.75;3.60;;;;;;;6.09;100.00;100109.78;5000508;28;20060;-69
2022/04/12 03:41:48;;;;;;;5.25;3.72;;;;;;;5.97;100.00;100108.94;5014264;28;20048;-70
2022/04/12 03:44:32;;;;;;;5.38;3.63;;;;;;;5.91;100.00;100109.41;5014156;28;20052;-70
2022/04/12 03:47:16;;;;;;;4.70;3.63;;;;;;;5.84;100.00;100105.56;5015117;28;20445;-69
2022/04/12 03:50:00;;;;;;;5.30;3.97;;;;;;;5.82;100.00;100109.28;5013828;28;20078;-69
2022/04/12 03:52:44;;;;;;;7.15;4.03;;;;;;;5.81;100.00;100107.59;5000233;28;20513;-69
2022/04/12 03:55:31;;;;;;;5.72;3.92;;;;;;;5.80;100.00;100101.47;5013746;28;20052;-70
2022/04/12 03:58:19;;;;;;;6.72;3.63;;;;;;;5.79;100.00;100099.78;5014696;28;20052;-70
2022/04/12 04:01:04;;;;;;;6.05;3.72;;;;;;;5.79;100.00;100104.22;5013901;28;20056;-69
2022/04/12 04:03:49;;;;;;;6.90;3.97;;;;;;;5.69;100.00;100101.44;5013615;28;20460;-69
2022/04/12 04:06:32;;;;;;;5.45;4.07;;;;;;;5.68;100.00;100096.25;4999846;28;20049;-69
2022/04/12 04:09:16;;;;;;;4.32;3.22;;;;;;;5.68;100.00;100112.97;5014728;28;20460;-69
2022/04/12 04:12:03;;;;;;;5.07;3.78;;;;;;;5.69;100.00;100100.56;5014612;28;20412;-69
2022/04/12 04:14:47;;;;;;;5.35;3.85;;;;;;;5.75;100.00;100113.34;5013687;28;20092;-69
2022/04/12 04:17:31;;;;;;;7.78;4.82;;;;;;;5.68;100.00;100110.31;4999380;28;20425;-69
2022/04/12 04:20:18;;;;;;;8.30;4.53;;;;;;;5.50;100.00;100113.50;4999950;28;20523;-69
2022/04/12 04:23:03;;;;;;;8.68;4.63;;;;;;;5.46;100.00;100106.78;5013549;28;20053;-69
2022/04/12 04:25:47;;;;;;;11.20;4.70;;;;;;;5.45;100.00;100116.50;5012850;28;20048;-69
2022/04/12 04:28:33;;;;;;;7.13;5.07;;;;;;;5.43;100.00;100110.50;5013432;28;20099;-69
2022/04/12 04:31:18;;;;;;;9.05;5.40;;;;;;;5.47;100.00;100114.59;5014370;28;20049;-69
2022/04/12 04:34:01;;;;;;;8.82;5.05;;;;;;;5.47;100.00;100114.59;5013314;28;20052;-69
2022/04/12 04:36:45;;;;;;;7.45;4.50;;;;;;;5.47;100.00;100117.25;5013120;28;20176;-69
2022/04/12 04:39:29;;;;;;;9.05;4.90;;;;;;;5.46;100.00;100112.88;5013172;28;20180;-69
2022/04/12 04:42:13;;;;;;;9.57;4.95;;;;;;;5.57;100.00;100117.38;5013252;28;20526;-69
2022/04/12 04:44:57;;;;;;;8.02;5.13;;;;;;;5.53;100.00;100113.28;4998944;28;20080;-69
2022/04/12 04:47:49;;;;;;;6.13;4.28;;;;;;;5.59;100.00;100118.09;5012813;28;20109;-69
2022/04/12 04:50:33;;;;;;;9.23;4.65;;;;;;;5.66;100.00;100122.81;5012797;28;20056;-69
2022/04/12 04:53:17;;;;;;;8.43;4.65;;;;;;;5.74;100.00;100117.78;5012814;28;20134;-69
2022/04/12 04:56:01;;;;;;;10.55;5.45;;;;;;;5.77;100.00;100116.69;5012962;28;20053;-69
2022/04/12 04:58:46;;;;;;;6.70;4.53;;;;;;;5.78;100.00;100121.88;5014013;28;20066;-69
2022/04/12 05:01:30;;;;;;;6.55;4.95;;;;;;;5.78;100.00;100126.31;5013918;28;20044;-69
2022/04/12 05:04:13;;;;;;;6.07;4.60;;;;;;;5.77;100.00;100128.09;5013904;28;20096;-69
2022/04/12 05:06:57;;;;;;;8.80;4.40;;;;;;;5.82;100.00;100133.94;5012527;28;20525;-69
2022/04/12 05:09:41;;;;;;;9.68;4.93;;;;;;;5.87;100.00;100123.81;5012824;28;20049;-68
2022/04/12 05:12:25;;;;;;;12.02;4.70;;;;;;;5.91;100.00;100124.44;5013844;28;20096;-69
2022/04/12 05:15:09;;;;;;;7.05;5.18;;;;;;;5.95;100.00;100131.19;5012975;28;20461;-69
2022/04/12 05:17:54;;;;;;;12.35;7.00;;;;;;;6.11;100.00;100131.69;5012373;28;20176;-69
2022/04/12 05:20:38;;;;;;;8.77;4.88;;;;;;;6.11;100.00;100131.69;5012713;28;20561;-69
2022/04/12 05:23:22;;;;;;;5.47;4.20;;;;;;;6.11;100.00;100127.25;5012458;28;20048;-69
2022/04/12 05:26:06;;;;;;;8.77;4.70;;;;;;;6.15;100.00;100130.50;5013631;28;20053;-69
2022/04/12 05:28:50;;;;;;;5.13;4.03;;;;;;;6.21;100.00;100127.34;5013372;28;20112;-69
2022/04/12 05:31:34;;;;;;;5.65;4.18;;;;;;;6.27;100.00;100130.34;5014070;28;20048;-69
2022/04/12 05:34:18;;;;;;;9.77;5.30;;;;;;;6.31;100.00;100129.16;5013608;28;20068;-69
2022/04/12 05:37:01;;;;;;;5.47;4.60;;;;;;;6.39;100.00;100136.50;5013532;28;20064;-69
2022/04/12 05:39:45;;;;;;;10.77;4.95;;;;;;;6.45;100.00;100136.84;5017443;28;20107;-69
2022/04/12 05:42:29;;;;;;;6.88;4.30;;;;;;;6.55;100.00;100142.28;5016530;28;20078;-69
2022/04/12 05:45:14;;;;;;;6.85;5.45;;;;;;;6.60;100.00;100143.59;5002543;28;20460;-69
2022/04/12 05:48:00;;;;;;;7.32;5.30;;;;;;;6.68;100.00;100138.50;5002444;28;20099;-69
2022/04/12 05:50:44;;;;;;;7.43;5.18;;;;;;;6.78;100.00;100139.44;5017090;28;20100;-69
2022/04/12 05:53:28;;;;;;;7.22;5.15;;;;;;;6.85;100.00;100145.94;5016030;28;20057;-69
2022/04/12 05:56:12;;;;;;;8.43;5.47;;;;;;;6.94;100.00;100142.56;5002417;28;20504;-69
2022/04/12 05:58:56;;;;;;;6.28;4.45;;;;;;;7.03;100.00;100144.47;5002239;28;20540;-69
2022/04/12 06:01:40;;;;;;;6.50;4.68;;;;;;;7.11;100.00;100142.03;5015851;28;20552;-69
2022/04/12 06:04:24;;;;;;;7.47;5.20;;;;;;;7.22;100.00;100136.69;5002504;28;20049;-69
2022/04/12 06:07:08;;;;;;;8.95;5.28;;;;;;;7.35;100.00;100134.69;5015699;28;20512;-69
2022/04/12 06:09:52;;;;;;;10.77;5.30;;;;;;;7.44;100.00;100133.09;5015772;28;20049;-69
2022/04/12 06:12:37;;;;;;;7.70;4.80;;;;;;;7.56;100.00;100140.88;5002383;28;20092;-69
2022/04/12 06:15:21;;;;;;;10.82;4.15;;;;;;;7.68;100.00;100130.09;5015917;28;20141;-69
2022/04/12 06:18:05;;;;;;;8.55;5.03;;;;;;;7.79;100.00;100137.13;5016463;28;20464;-69
2022/04/12 06:20:49;;;;;;;6.72;5.05;;;;;;;7.93;100.00;100142.13;5016799;28;20048;-69
2022/04/12 06:23:33;;;;;;;7.65;5.03;;;;;;;8.01;100.00;100140.47;5016778;28;20173;-69
2022/04/12 06:26:17;;;;;;;10.50;5.63;;;;;;;8.13;100.00;100133.28;5015414;28;20057;-69
2022/04/12 06:29:01;;;;;;;6.95;5.22;;;;;;;8.28;100.00;100137.28;5015636;28;20092;-69
2022/04/12 06:31:45;;;;;;;8.10;5.00;;;;;;;8.39;100.00;100139.84;5015871;28;20413;-69
2022/04/12 06:34:29;;;;;;;7.93;5.22;;;;;;;8.49;100.00;100138.06;5015244;28;20482;-69
2022/04/12 06:37:13;;;;;;;8.38;4.90;;;;;;;8.63;100.00;100148.31;5016159;28;20045;-69
2022/04/12 06:39:58;;;;;;;7.25;5.00;;;;;;;8.78;100.00;100149.66;5001400;28;20056;-69
2022/04/12 06:42:42;;;;;;;9.80;5.40;;;;;;;8.93;100.00;100143.81;5015122;28;20571;-69
2022/04/12 06:45:26;;;;;;;8.07;6.03;;;;;;;9.11;100.00;100138.66;5015015;28;20093;-69
2022/04/12 06:48:10;;;;;;;7.15;5.30;;;;;;;9.23;100.00;100137.53;5014974;28;20080;-69
2022/04/12 06:50:54;;;;;;;7.35;5.43;;;;;;;9.36;100.00;100149.59;5000647;28;20101;-69
2022/04/12 06:53:38;;;;;;;8.80;6.22;;;;;;;9.44;100.00;100157.72;5015246;28;20044;-70
2022/04/12 06:56:22;;;;;;;11.20;6.00;;;;;;;9.56;100.00;100153.94;5014808;28;20048;-69
2022/04/12 06:59:05;;;;;;;7.28;5.30;;;;;;;9.74;100.00;100146.06;5015842;28;20100;-69
2022/04/12 07:01:49;;;;;;;9.10;5.70;;;;;;;9.89;100.00;100145.50;5014934;28;20124;-70
2022/04/12 07:04:33;;;;;;;9.10;6.60;;;;;;;9.95;100.00;100157.41;5014983;28;20048;-69
2022/04/12 07:07:17;;;;;;;10.00;5.50;;;;;;;10.03;100.00;100154.91;5014668;28;20123;-69
2022/04/12 07:10:01;;;;;;;7.93;5.55;;;;;;;10.20;100.00;100156.81;5014919;28;20052;-69
2022/04/12 07:12:46;;;;;;;7.82;6.00;;;;;;;10.25;100.00;100158.91;5014573;28;20109;-69
2022/04/12 07:15:30;;;;;;;7.60;5.47;;;;;;;10.47;100.00;100166.53;5001327;28;20103;-69
2022/04/12 07:18:14;;;;;;;12.68;6.00;;;;;;;10.63;100.00;100166.75;5016044;28;20477;-70
2022/04/12 07:20:58;;;;;;;7.85;6.03;;;;;;;10.84;100.00;100159.34;5000536;28;20048;-69
2022/04/12 07:23:42;;;;;;;9.43;5.97;;;;;;;10.86;100.00;100168.03;5000766;28;20131;-69
2022/04/12 07:26:26;;;;;;;8.48;5.78;;;;;;;11.05;100.00;100159.13;5014375;28;20048;-69
2022/04/12 07:29:11;;;;;;;9.65;5.40;;;;;;;11.20;100.00;100161.13;5014443;28;20048;-70
2022/04/12 07:31:56;;;;;;;5.63;4.60;;;;;;;11.54;100.00;100154.13;5015555;28;20116;-69
2022/04/12 07:34:40;;;;;;;9.60;5.47;;;;;;;11.62;100.00;100156.91;5000516;28;20489;-69
2022/04/12 07:37:24;;;;;;;9.15;5.40;;;;;;;11.82;100.00;100155.72;5015617;28;20044;-69
2022/04/12 07:40:09;;;;;;;7.75;5.22;;;;;;;11.95;100.00;100158.84;5014123;28;20525;-69
2022/04/12 07:42:53;;;;;;;7.13;4.40;;;;;;;12.64;95.48;100150.72;5015394;28;20049;-69
2022/04/12 07:45:37;;;;;;;7.20;5.30;;;;;;;12.30;90.48;100153.38;5014209;28;20069;-69
2022/04/12 07:48:21;;;;;;;6.57;4.43;;;;;;;12.29;91.28;100151.72;5014109;28;20125;-69
2022/04/12 07:51:05;;;;;;;8.40;4.80;;;;;;;12.46;92.34;100148.13;5015199;28;20508;-69
2022/04/12 07:53:49;;;;;;;6.65;4.10;;;;;;;12.50;88.79;100149.50;5000008;28;20107;-69
2022/04/12 07:56:34;;;;;;;6.47;4.40;;;;;;;12.54;87.97;100140.16;5015090;28;20049;-69
2022/04/12 07:59:18;;;;;;;6.45;4.68;;;;;;;12.54;83.92;100134.81;5014022;28;20180;-69
2022/04/12 08:02:02;;;;;;;5.45;4.03;;;;;;;12.69;86.38;100133.19;5013935;28;20048;-69
2022/04/12 08:04:46;;;;;;;8.52;5.43;;;;;;;12.63;90.09;100133.88;4999870;28;20457;-68
2022/04/12 08:07:29;;;;;;;7.80;5.55;;;;;;;12.94;87.36;100140.38;5014461;28;20414;-69
2022/04/12 08:10:18;;;;;;;9.55;5.80;;;;;;;13.09;87.95;100130.72;5013838;28;20049;-69
2022/04/12 08:13:02;;;;;;;6.57;5.20;;;;;;;13.00;85.02;100142.38;5013495;28;20048;-69
2022/04/12 08:15:46;;;;;;;6.60;5.15;;;;;;;13.12;87.46;100135.72;5013557;28;20049;-69
2022/04/12 08:18:30;;;;;;;9.30;5.40;;;;;;;13.35;86.56;100137.63;5013607;28;20049;-69
2022/04/12 08:21:14;;;;;;;8.70;4.97;;;;;;;13.50;82.05;100130.63;5014603;28;20533;-69
2022/04/12 08:23:58;;;;;;;9.88;5.70;;;;;;;13.69;82.67;100124.09;5014560;28;20041;-69
2022/04/12 08:26:42;;;;;;;8.30;6.05;;;;;;;13.90;80.23;100137.81;5013353;28;20418;-69
2022/04/12 08:29:26;;;;;;;7.20;4.80;;;;;;;14.03;78.72;100139.00;5013499;28;20402;-68
2022/04/12 08:32:10;;;;;;;9.05;5.60;;;;;;;14.22;73.90;100140.50;5013583;28;20048;-69
2022/04/12 08:34:54;;;;;;;10.07;6.03;;;;;;;14.11;73.83;100143.50;5013281;28;20125;-68
2022/04/12 08:37:37;;;;;;;7.85;5.75;;;;;;;14.37;73.23;100141.47;5014388;28;20116;-69
2022/04/12 08:40:21;;;;;;;7.72;5.22;;;;;;;14.73;74.25;100145.38;4999425;28;20048;-69
2022/04/12 08:43:07;;;;;;;8.10;5.78;;;;;;;14.91;69.36;100135.25;5012823;28;20049;-68
2022/04/12 08:45:51;;;;;;;10.02;5.32;;;;;;;14.83;68.81;100137.97;5012983;28;20056;-68
2022/04/12 08:48:35;;;;;;;8.93;4.53;;;;;;;15.37;68.50;100147.75;5013100;28;20049;-69
2022/04/12 08:51:19;;;;;;;8.90;4.90;;;;;;;15.65;67.05;100137.16;5012876;28;20081;-69
2022/04/12 08:54:03;;;;;;;11.43;5.38;;;;;;;15.88;63.74;100132.59;5013659;28;20096;-68
2022/04/12 08:56:52;;;;;;;8.20;4.53;;;;;;;15.69;64.14;100127.75;5012960;28;20080;-69
2022/04/12 08:59:36;;;;;;;6.25;4.90;;;;;;;15.99;63.47;100128.66;5013934;28;20045;-69
2022/04/12 09:02:20;;;;;;;5.18;4.60;;;;;;;15.87;61.58;100117.47;5013941;28;20132;-69
2022/04/12 09:05:06;;;;;;;6.70;4.40;;;;;;;16.18;64.25;100117.38;5013156;28;20056;-68
2022/04/12 09:07:50;;;;;;;6.00;4.03;;;;;;;16.53;63.13;100120.22;5013573;28;20153;-69
2022/04/12 09:10:36;;;;;;;6.03;4.47;;;;;;;16.75;60.61;100116.59;5012608;28;20133;-67
2022/04/12 09:13:20;;;;;;;9.48;5.03;;;;;;;16.58;62.31;100114.28;5012479;28;20184;-69
2022/04/12 09:16:08;;;;;;;5.47;4.38;;;;;;;16.83;57.96;100113.81;5012576;28;20053;-69
2022/04/12 09:18:51;;;;;;;6.55;5.18;;;;;;;16.84;58.35;100104.69;5013551;28;20100;-69
2022/04/12 09:21:35;;;;;;;;;;;;;;;16.97;57.05;100104.84;5012852;28;20053;-69
2022/04/12 09:24:20;;;;;;;8.07;4.80;;;;;;;17.20;57.36;100110.91;4998823;28;19920;-69
2022/04/12 09:27:10;;;;;;;6.63;4.93;;;;;;;17.48;56.42;100114.56;5012203;28;20567;-69
2022/04/12 09:29:57;;;;;;;8.18;4.95;;;;;;;17.46;53.24;100116.63;5012673;28;20462;-69
2022/04/12 09:32:45;;;;;;;5.93;4.10;;;;;;;17.87;53.60;100119.50;4998702;28;20103;-69
2022/04/12 09:35:29;;;;;;;7.97;4.10;;;;;;;17.56;53.10;100122.56;4998468;28;20045;-69
2022/04/12 09:38:13;;;;;;;6.68;3.95;;;;;;;18.07;53.04;100120.50;5012743;28;20525;-69
2022/04/12 09:41:14;;;;;;;13.10;7.07;;;;;;;18.04;55.09;100105.56;5012479;28;20205;-69
2022/04/12 09:44:15;;;;;;;7.32;4.47;;;;;;;18.36;51.51;100105.00;5012268;28;20100;-69
2022/04/12 09:47:01;;;;;;;8.63;4.18;;;;;;;18.62;49.48;100106.00;5012485;28;20041;-69
2022/04/12 09:49:48;;;;;;;4.93;4.05;;;;;;;19.06;48.99;100108.25;5012237;28;20116;-69
2022/04/12 09:52:31;;;;;;;6.43;4.40;;;;;;;18.04;50.94;100102.88;5012112;28;20052;-68
2022/04/12 09:55:41;;;;;;;5.32;4.05;;;;;;;20.28;49.15;100096.00;5013373;28;20536;-69
2022/04/12 09:58:26;;;;;;;5.28;4.03;;;;;;;21.80;43.83;100089.50;5013424;28;20045;-69
2022/04/12 10:01:11;;;;;;;5.60;3.95;;;;;;;21.80;43.83;100089.50;4998172;28;20520;-69
2022/04/12 10:03:55;;;;;;;;;;;;;;;24.50;40.72;100084.53;4999223;28;20049;-69
2022/04/12 10:06:41;;;;;;;9.00;3.95;;;;;;;24.37;38.11;100083.94;5012194;28;20288;-69
2022/04/12 10:09:27;;;;;;;8.25;3.75;;;;;;;24.37;38.11;100083.94;5011995;28;20056;-70
2022/04/12 10:12:12;;;;;;;6.35;3.67;;;;;;;27.92;32.44;100060.59;5012252;28;20092;-69
2022/04/12 10:14:56;;;;;;;4.28;3.88;;;;;;;27.92;32.44;100060.59;5011848;28;20048;-70
2022/04/12 10:17:40;;;;;;;5.97;3.60;;;;;;;28.72;31.53;100048.28;5012033;28;20138;-69
2022/04/12 10:20:24;;;;;;;8.82;4.22;;;;;;;28.92;30.11;100048.41;4998298;28;20049;-69
2022/04/12 10:23:08;;;;;;;6.10;4.57;;;;;;;28.36;29.90;100032.69;4998498;28;20045;-68
2022/04/12 10:25:56;;;;;;;8.15;4.80;;;;;;;29.59;28.17;100031.88;5014666;28;20081;-68
2022/04/12 10:28:41;;;;;;;6.38;4.13;;;;;;;29.74;28.74;100027.19;5015564;28;20501;-69
2022/04/12 10:31:28;;;;;;;4.55;4.05;;;;;;;27.60;30.39;100026.88;5016249;28;20096;-70
2022/04/12 10:34:14;;;;;;;5.72;4.38;;;;;;;29.72;27.57;100021.16;5016513;28;20057;-68
2022/04/12 10:37:08;;;;;;;6.65;4.20;;;;;;;30.97;26.75;100023.69;5015360;28;20108;-68
2022/04/12 10:39:57;;;;;;;9.73;4.50;;;;;;;30.74;26.57;100018.84;5016061;28;20124;-67
2022/04/12 10:42:41;;;;;;;7.57;4.55;;;;;;;31.70;26.54;100012.56;5001436;28;20045;-70
2022/04/12 10:45:32;;;;;;;7.22;5.00;;;;;;;32.20;25.81;100006.63;5015179;28;20092;-69
2022/04/12 10:48:27;;;;;;;6.28;4.35;;;;;;;32.79;25.65;100003.50;5015267;28;20053;-70
2022/04/12 10:51:14;;;;;;;6.35;4.60;;;;;;;32.14;26.24;100006.91;5014961;28;20422;-70
2022/04/12 10:53:58;;;;;;;8.48;4.68;;;;;;;31.52;25.57;99995.84;5014974;28;20110;-70
2022/04/12 10:56:42;;;;;;;5.93;4.60;;;;;;;32.05;24.95;99992.94;5016080;28;20539;-70
2022/04/12 10:59:41;;;;;;;6.80;4.70;;;;;;;30.45;26.45;99998.56;5014809;28;20100;-70
2022/04/12 11:02:31;;;;;;;9.35;5.20;;;;;;;32.14;25.07;99991.19;5014671;28;20421;-69
2022/04/12 11:05:39;;;;;;;7.07;5.43;;;;;;;28.42;28.50;99987.78;5014568;28;20508;-69
2022/04/12 11:08:24;;;;;;;6.75;4.32;;;;;;;30.63;28.38;99984.22;5015611;28;20040;-70
2022/04/12 11:11:10;;;;;;;5.78;4.45;;;;;;;30.63;28.38;99984.22;5015874;28;20056;-70
2022/04/12 11:13:55;;;;;;;5.75;4.60;;;;;;;31.59;25.53;99971.53;5001053;28;20103;-71
2022/04/12 11:16:48;;;;;;;5.10;4.60;;;;;;;33.27;24.26;99973.56;5000591;28;20057;-70
2022/04/12 11:19:40;;;;;;;;;;;;;;;34.17;23.49;99966.50;5015096;28;20121;-70
2022/04/12 11:22:25;;;;;;;4.35;3.90;;;;;;;35.12;22.00;99972.88;5014456;28;20065;-68
2022/04/12 11:25:16;;;;;;;6.68;4.25;;;;;;;35.62;21.68;99955.03;5014520;28;20448;-70
2022/04/12 11:28:00;;;;;;;5.35;3.85;;;;;;;35.07;22.30;99953.59;5014250;28;20107;-71
2022/04/12 11:30:57;;;;;;;8.73;4.28;;;;;;;34.54;23.03;99949.75;5014756;28;20096;-69
2022/04/12 11:33:42;;;;;;;4.00;3.38;;;;;;;34.91;23.40;99952.31;5014428;28;20460;-71
2022/04/12 11:36:26;;;;;;;7.53;3.92;;;;;;;35.81;20.81;99947.38;5013863;28;20049;-68
2022/04/12 11:39:10;;;;;;;6.32;3.75;;;;;;;36.18;21.80;99946.97;5014284;28;20531;-71
2022/04/12 11:41:58;;;;;;;10.60;4.53;;;;;;;37.26;19.92;99941.25;5014511;28;20524;-68
2022/04/12 11:44:53;;;;;;;6.70;3.80;;;;;;;37.30;19.68;99930.28;5015015;28;20052;-69
2022/04/12 11:47:44;;;;;;;4.28;3.35;;;;;;;37.50;20.22;99929.66;5015132;28;20057;-68
2022/04/12 11:50:28;;;;;;;5.30;3.15;;;;;;;36.24;19.96;99926.28;5014857;28;20048;-68
2022/04/12 11:53:12;;;;;;;4.50;3.35;;;;;;;37.75;19.57;99921.28;5000353;28;20132;-68
2022/04/12 11:56:00;;;;;;;3.88;3.47;;;;;;;35.85;19.72;99920.66;5014019;28;20096;-67
2022/04/12 11:58:45;;;;;;;9.23;5.15;;;;;;;36.45;20.98;99919.00;5014967;28;20121;-68
2022/04/12 12:01:30;;;;;;;3.80;3.30;;;;;;;37.12;19.90;99917.53;5013875;28;20558;-68
2022/04/12 12:04:15;;;;;;;3.72;3.28;;;;;;;36.12;20.71;99911.34;5014285;28;20088;-69
2022/04/12 12:07:02;;;;;;;4.97;2.95;;;;;;;36.78;20.84;99909.13;5013807;28;20119;-69
2022/04/12 12:09:58;;;;;;;4.68;3.50;;;;;;;38.02;19.33;99908.94;5013896;28;20547;-69
2022/04/12 12:12:47;;;;;;;5.97;3.65;;;;;;;38.23;18.90;99916.25;5013746;28;20053;-68
2022/04/12 12:15:33;;;;;;;5.93;3.55;;;;;;;36.33;20.77;99904.91;5000164;28;20556;-69
2022/04/12 12:18:19;;;;;;;4.57;3.38;;;;;;;37.57;20.27;99899.41;5013690;28;20104;-69
2022/04/12 12:21:03;;;;;;;4.30;3.08;;;;;;;38.67;19.13;99903.72;4999721;28;20049;-69
2022/04/12 12:23:47;;;;;;;38.95;21.92;;;;;;;37.31;19.75;99901.34;4999572;28;20555;-68
2022/04/12 12:26:31;;;;;;;4.90;3.25;;;;;;;37.83;20.01;99894.56;4999488;28;20068;-69
2022/04/12 12:29:14;;;;;;;5.88;2.95;;;;;;;36.69;19.96;99903.56;5013253;28;20119;-68
2022/04/12 12:31:58;;;;;;;7.25;3.17;;;;;;;32.24;23.73;99899.25;5013386;28;20107;-69
2022/04/12 12:34:44;;;;;;;4.40;3.10;;;;;;;32.24;23.81;99896.50;4999538;28;20092;-68
2022/04/12 12:37:28;;;;;;;3.92;2.88;;;;;;;29.59;27.08;99889.84;4999387;28;20081;-68
2022/04/12 12:40:18;;;;;;;3.33;2.70;;;;;;;30.89;25.13;99890.22;5014365;28;20060;-69
2022/04/12 12:43:12;;;;;;;3.85;2.45;;;;;;;31.81;24.89;99894.75;5013218;28;20418;-68
2022/04/12 12:45:56;;;;;;;8.90;2.58;;;;;;;31.09;26.00;99883.75;5012956;28;20099;-68
2022/04/12 12:48:40;;;;;;;4.03;2.67;;;;;;;31.39;25.82;99880.78;5012770;28;20049;-69